Time;durP1;ratioP1;P1;durP2;ratioP2;P2;SDS_P1;SDS_P2;PMS_P1;PMS_P2;Temp;Humidity;BMP_temperature;BMP_pressure;BME280_temperature;BME280_humidity;BME280_pressure;Samples;Min_cycle;Max_cycle;Signal;HPM_P1;HPM_P2
2022/02/23 00:01:16;;;;;;;16.05;12.57;;;;;;;3.76;74.65;94697.94;5074437;28;20028;-69
2022/02/23 00:03:43;;;;;;;15.20;12.55;;;;;;;3.71;74.47;94694.78;5073256;28;20024;-69
2022/02/23 00:06:08;;;;;;;13.82;12.35;;;;;;;3.70;73.76;94700.00;5074286;28;20102;-69
2022/02/23 00:08:34;;;;;;;15.10;12.73;;;;;;;3.74;73.52;94711.78;5074599;28;20032;-69
2022/02/23 00:11:00;;;;;;;19.23;16.42;;;;;;;3.77;73.51;94714.16;5072983;28;20183;-69
2022/02/23 00:13:27;;;;;;;16.80;14.15;;;;;;;3.77;72.81;94703.88;5073194;28;20025;-69
2022/02/23 00:15:54;;;;;;;14.43;12.13;;;;;;;3.80;72.52;94701.13;5072914;28;20039;-69
2022/02/23 00:18:20;;;;;;;15.55;12.85;;;;;;;3.76;74.04;94707.34;5074374;28;20016;-69
2022/02/23 00:20:45;;;;;;;14.40;12.50;;;;;;;3.77;73.97;94706.47;5056070;28;20524;-69
2022/02/23 00:23:10;;;;;;;15.32;12.40;;;;;;;3.75;74.89;94713.41;5074225;28;20021;-69
2022/02/23 00:25:36;;;;;;;18.13;14.85;;;;;;;3.69;74.73;94706.88;5055893;28;20033;-69
2022/02/23 00:28:01;;;;;;;16.95;14.10;;;;;;;3.72;73.93;94711.03;5072799;28;20033;-69
2022/02/23 00:30:27;;;;;;;13.48;12.00;;;;;;;3.74;74.27;94706.63;5072735;28;20040;-68
2022/02/23 00:32:52;;;;;;;15.40;12.90;;;;;;;3.65;74.23;94704.56;5073883;28;20032;-69
2022/02/23 00:35:18;;;;;;;15.60;12.82;;;;;;;3.67;74.93;94716.41;5072547;28;20060;-68
2022/02/23 00:37:43;;;;;;;15.40;13.27;;;;;;;3.69;75.02;94712.03;5073888;28;20052;-69
2022/02/23 00:40:09;;;;;;;14.80;13.13;;;;;;;3.66;75.54;94719.09;5074091;28;20032;-68
2022/02/23 00:42:34;;;;;;;14.50;12.93;;;;;;;3.60;75.90;94710.00;5055872;28;20037;-68
2022/02/23 00:45:00;;;;;;;14.73;13.13;;;;;;;3.63;75.33;94714.13;5073488;28;20036;-68
2022/02/23 00:47:25;;;;;;;16.20;12.90;;;;;;;3.67;75.40;94713.03;5073589;28;20031;-68
2022/02/23 00:49:51;;;;;;;13.88;11.73;;;;;;;3.69;75.48;94714.59;5072307;28;20120;-68
2022/02/23 00:52:16;;;;;;;14.23;12.45;;;;;;;3.69;75.44;94713.78;5072349;28;20032;-69
2022/02/23 00:54:44;;;;;;;14.60;13.02;;;;;;;3.70;75.67;94705.13;5054229;28;20029;-68
2022/02/23 00:57:10;;;;;;;15.13;12.85;;;;;;;3.64;75.79;94706.31;5055341;28;20024;-68
2022/02/23 00:59:36;;;;;;;16.52;13.32;;;;;;;3.65;75.65;94696.88;5055450;28;20028;-68
2022/02/23 01:02:01;;;;;;;15.57;12.90;;;;;;;3.67;75.49;94700.19;5072206;28;20290;-68
2022/02/23 01:04:27;;;;;;;15.98;13.27;;;;;;;3.66;75.09;94691.66;5072257;28;20036;-68
2022/02/23 01:06:52;;;;;;;15.85;13.73;;;;;;;3.63;73.45;94703.84;5072007;28;20392;-68
2022/02/23 01:09:18;;;;;;;16.45;14.15;;;;;;;3.49;73.96;94689.22;5073689;28;20471;-69
2022/02/23 01:11:43;;;;;;;16.48;13.60;;;;;;;3.63;73.84;94696.97;5071916;28;20032;-69
2022/02/23 01:14:09;;;;;;;15.18;13.40;;;;;;;3.60;73.23;94693.75;5072154;28;20052;-68
2022/02/23 01:16:34;;;;;;;15.68;13.77;;;;;;;3.65;73.63;94702.00;5071809;28;20037;-68
2022/02/23 01:19:00;;;;;;;19.73;14.27;;;;;;;3.68;73.87;94700.09;5055258;28;20470;-68
2022/02/23 01:21:26;;;;;;;17.02;14.52;;;;;;;3.69;73.80;94708.63;5054959;28;20040;-68
2022/02/23 01:23:51;;;;;;;17.17;13.63;;;;;;;3.61;73.26;94708.25;5073291;28;20044;-69
2022/02/23 01:26:17;;;;;;;15.77;14.10;;;;;;;3.64;72.84;94715.78;5071604;28;20041;-68
2022/02/23 01:28:42;;;;;;;15.93;14.23;;;;;;;3.64;72.54;94708.88;5073155;28;20032;-69
2022/02/23 01:31:08;;;;;;;18.48;13.90;;;;;;;3.71;72.19;94714.53;5071507;28;20497;-68
2022/02/23 01:33:33;;;;;;;15.57;13.85;;;;;;;3.74;73.55;94714.34;5066080;28;20086;-68
2022/02/23 01:35:59;;;;;;;16.48;14.65;;;;;;;3.73;74.25;94707.53;5054503;28;20021;-68
2022/02/23 01:38:24;;;;;;;16.50;14.57;;;;;;;3.68;74.49;94704.41;5071566;28;20032;-68
2022/02/23 01:40:49;;;;;;;18.45;13.85;;;;;;;3.68;74.80;94702.69;5071398;28;20513;-69
2022/02/23 01:43:15;;;;;;;16.05;13.88;;;;;;;3.75;74.08;94710.84;5071290;28;20024;-68
2022/02/23 01:45:40;;;;;;;14.90;13.00;;;;;;;3.76;74.00;94715.06;5071201;28;20403;-68
2022/02/23 01:48:06;;;;;;;15.88;13.18;;;;;;;3.68;73.80;94715.53;5054641;28;20501;-68
2022/02/23 01:50:31;;;;;;;15.88;13.80;;;;;;;3.65;73.85;94705.41;5071138;28;20468;-68
2022/02/23 01:52:57;;;;;;;14.07;12.55;;;;;;;3.69;73.56;94698.34;5071254;28;20036;-69
2022/02/23 01:55:22;;;;;;;15.93;13.73;;;;;;;3.74;73.85;94716.91;5088233;28;20449;-68
2022/02/23 01:57:47;;;;;;;15.55;13.02;;;;;;;3.72;74.16;94711.84;5071019;28;20036;-68
2022/02/23 02:00:15;;;;;;;15.07;12.80;;;;;;;3.65;74.53;94713.13;5070985;28;20036;-68
2022/02/23 02:02:41;;;;;;;17.42;13.23;;;;;;;3.69;74.83;94716.34;5070984;28;20111;-68
2022/02/23 02:05:07;;;;;;;16.65;13.65;;;;;;;3.57;74.58;94705.84;5087339;28;20399;-68
2022/02/23 02:07:32;;;;;;;16.13;12.80;;;;;;;3.67;72.96;94720.72;5087702;28;20040;-69
2022/02/23 02:09:58;;;;;;;17.05;14.23;;;;;;;3.67;73.04;94716.41;5071997;28;20029;-68
2022/02/23 02:12:24;;;;;;;17.83;13.95;;;;;;;3.66;73.24;94708.81;5071945;28;20028;-68
2022/02/23 02:14:50;;;;;;;14.40;12.65;;;;;;;3.71;72.76;94727.38;5071898;28;20021;-68
2022/02/23 02:17:15;;;;;;;15.55;13.23;;;;;;;3.72;72.65;94727.25;5070635;28;20032;-68
2022/02/23 02:19:41;;;;;;;15.82;12.98;;;;;;;3.75;72.56;94719.38;5071868;28;20090;-68
2022/02/23 02:22:07;;;;;;;15.82;13.23;;;;;;;3.75;72.88;94723.69;5087441;28;20447;-68
2022/02/23 02:24:34;;;;;;;15.50;12.13;;;;;;;3.68;72.37;94722.41;5087597;28;20453;-69
2022/02/23 02:27:00;;;;;;;14.80;12.48;;;;;;;3.69;72.19;94727.44;5070386;28;20421;-68
2022/02/23 02:29:26;;;;;;;14.65;12.77;;;;;;;3.71;72.51;94733.31;5070657;28;20033;-68
2022/02/23 02:31:51;;;;;;;15.27;13.00;;;;;;;3.71;73.62;94741.03;5070873;28;20040;-68
2022/02/23 02:34:18;;;;;;;15.98;12.85;;;;;;;3.73;72.71;94746.06;5091820;28;20040;-68
2022/02/23 02:36:43;;;;;;;14.40;12.05;;;;;;;3.74;72.22;94743.44;5091570;28;20063;-68
2022/02/23 02:39:09;;;;;;;15.32;12.18;;;;;;;3.84;72.20;94748.84;5090789;28;20035;-68
2022/02/23 02:41:35;;;;;;;16.88;13.57;;;;;;;3.77;72.16;94752.72;5090476;28;20021;-69
2022/02/23 02:44:00;;;;;;;14.80;12.73;;;;;;;3.77;71.60;94755.28;5090596;28;20028;-69
2022/02/23 02:46:26;;;;;;;17.40;13.50;;;;;;;3.71;72.38;94740.22;5073562;28;20028;-68
2022/02/23 02:48:51;;;;;;;13.85;11.75;;;;;;;3.78;71.45;94752.59;5073241;28;20035;-68
2022/02/23 02:51:17;;;;;;;15.35;12.02;;;;;;;3.66;70.51;94752.50;5090289;28;20062;-68
2022/02/23 02:53:42;;;;;;;13.45;10.90;;;;;;;3.65;70.60;94754.25;5091777;28;20028;-69
2022/02/23 02:56:07;;;;;;;13.27;11.73;;;;;;;3.67;71.12;94762.66;5090279;28;20051;-69
2022/02/23 02:58:33;;;;;;;13.68;11.73;;;;;;;3.72;71.51;94755.53;5091668;28;20490;-68
2022/02/23 03:00:58;;;;;;;12.80;11.27;;;;;;;3.65;70.70;94763.66;5073161;28;20032;-68
2022/02/23 03:03:24;;;;;;;14.25;12.05;;;;;;;3.68;70.46;94758.38;5090068;28;20410;-69
2022/02/23 03:05:49;;;;;;;12.82;11.25;;;;;;;3.68;70.74;94766.91;5090013;28;20035;-69
2022/02/23 03:08:15;;;;;;;15.45;11.88;;;;;;;3.60;70.25;94760.56;5091431;28;20036;-68
2022/02/23 03:10:43;;;;;;;14.38;11.45;;;;;;;3.59;70.60;94764.84;5073099;28;20028;-68
2022/02/23 03:13:09;;;;;;;13.70;11.13;;;;;;;3.62;70.29;94762.09;5073568;28;20408;-68
2022/02/23 03:15:35;;;;;;;13.75;11.38;;;;;;;3.70;71.79;94767.63;5091037;28;20028;-68
2022/02/23 03:18:00;;;;;;;13.18;11.00;;;;;;;3.72;70.85;94775.25;5072319;28;20035;-69
2022/02/23 03:20:26;;;;;;;12.68;10.77;;;;;;;3.58;70.13;94766.59;5090107;28;20044;-68
2022/02/23 03:22:51;;;;;;;13.18;10.90;;;;;;;3.73;70.88;94771.75;5056218;28;20024;-68
2022/02/23 03:25:16;;;;;;;13.40;10.95;;;;;;;3.65;71.51;94773.94;5089709;28;20044;-68
2022/02/23 03:27:42;;;;;;;14.02;10.75;;;;;;;3.69;72.12;94778.81;5072863;28;20031;-68
2022/02/23 03:30:08;;;;;;;15.90;10.77;;;;;;;3.76;72.17;94781.88;5089744;28;20028;-68
2022/02/23 03:32:33;;;;;;;12.30;10.32;;;;;;;3.75;72.98;94782.78;5083549;28;20435;-68
2022/02/23 03:34:58;;;;;;;14.23;10.98;;;;;;;3.67;72.46;94777.25;5070976;28;20490;-68
2022/02/23 03:37:24;;;;;;;11.85;9.82;;;;;;;3.71;71.98;94796.75;5070642;28;20498;-68
2022/02/23 03:39:49;;;;;;;12.57;10.70;;;;;;;3.65;72.54;94794.50;5036140;28;20249;-68
2022/02/23 03:42:15;;;;;;;11.45;10.25;;;;;;;3.64;73.02;94788.53;5069419;28;20020;-68
2022/02/23 03:44:41;;;;;;;11.82;10.50;;;;;;;3.72;74.03;94796.63;5070446;28;20119;-69
2022/02/23 03:47:06;;;;;;;11.80;10.35;;;;;;;3.65;73.76;94790.22;5070550;28;20032;-68
2022/02/23 03:49:32;;;;;;;12.77;11.05;;;;;;;3.69;73.63;94793.41;5070480;28;20051;-68
2022/02/23 03:51:57;;;;;;;13.05;10.88;;;;;;;3.73;74.14;94797.47;5070467;28;20032;-68
2022/02/23 03:54:23;;;;;;;12.95;10.10;;;;;;;3.75;72.96;94798.22;5071026;28;20021;-68
2022/02/23 03:56:48;;;;;;;11.48;9.95;;;;;;;3.71;72.73;94800.13;5070413;28;20090;-68
2022/02/23 03:59:14;;;;;;;13.35;10.95;;;;;;;3.66;73.10;94802.13;5069485;28;20032;-68
2022/02/23 04:01:40;;;;;;;13.70;9.77;;;;;;;3.68;72.22;94800.31;5069474;28;20028;-68
2022/02/23 04:04:06;;;;;;;11.00;9.52;;;;;;;3.75;72.97;94805.91;5069426;28;20025;-69
2022/02/23 04:06:32;;;;;;;12.32;10.23;;;;;;;3.69;73.35;94813.97;5052435;28;20047;-68
2022/02/23 04:09:01;;;;;;;12.48;10.30;;;;;;;3.71;73.60;94805.28;5069348;28;20094;-69
2022/02/23 04:11:27;;;;;;;12.65;9.95;;;;;;;3.69;73.70;94811.41;5070354;28;20123;-69
2022/02/23 04:13:52;;;;;;;13.25;11.10;;;;;;;3.71;73.10;94815.56;5070652;28;20459;-68
2022/02/23 04:16:18;;;;;;;11.93;9.95;;;;;;;3.69;73.41;94812.22;5070282;28;20029;-68
2022/02/23 04:18:44;;;;;;;12.52;10.30;;;;;;;3.72;73.37;94826.66;5052402;28;20077;-68
2022/02/23 04:21:10;;;;;;;12.48;10.38;;;;;;;3.69;73.39;94821.69;5068922;28;20468;-69
2022/02/23 04:23:35;;;;;;;12.05;10.20;;;;;;;3.68;73.62;94830.31;5069144;28;20060;-68
2022/02/23 04:26:00;;;;;;;12.43;10.45;;;;;;;3.66;73.75;94834.69;5068917;28;20032;-68
2022/02/23 04:28:29;;;;;;;11.88;10.68;;;;;;;3.65;73.83;94835.59;5069574;28;20375;-68
2022/02/23 04:30:55;;;;;;;11.60;10.27;;;;;;;3.65;73.85;94846.72;5056282;28;20040;-68
2022/02/23 04:33:21;;;;;;;13.18;11.43;;;;;;;3.61;73.16;94844.41;5084712;28;20070;-69
2022/02/23 04:35:47;;;;;;;14.65;11.70;;;;;;;3.67;72.68;94844.06;5092833;28;20028;-68
2022/02/23 04:38:14;;;;;;;15.70;12.35;;;;;;;3.68;72.74;94845.72;5079295;28;20494;-68
2022/02/23 04:40:41;;;;;;;12.55;10.45;;;;;;;3.69;72.69;94844.81;5074717;28;20031;-68
2022/02/23 04:43:07;;;;;;;15.45;11.35;;;;;;;3.63;72.40;94847.72;5072532;28;20086;-68
2022/02/23 04:45:32;;;;;;;15.07;11.90;;;;;;;3.68;71.79;94861.16;5069224;28;20044;-68
2022/02/23 04:47:58;;;;;;;14.13;11.40;;;;;;;3.71;70.99;94863.53;5072542;28;20032;-68
2022/02/23 04:50:23;;;;;;;12.27;10.52;;;;;;;3.66;70.47;94858.66;5090231;28;20482;-69
2022/02/23 04:52:49;;;;;;;11.05;9.75;;;;;;;3.65;69.82;94866.44;5082887;28;20027;-68
2022/02/23 04:55:14;;;;;;;11.60;9.90;;;;;;;3.69;70.64;94867.94;5078564;28;20563;-68
2022/02/23 04:57:39;;;;;;;12.32;10.27;;;;;;;3.72;70.28;94875.47;5081751;28;20493;-68
2022/02/23 05:00:06;;;;;;;12.52;10.38;;;;;;;3.72;70.40;94878.88;5077910;28;20047;-68
2022/02/23 05:02:31;;;;;;;11.15;9.27;;;;;;;3.74;70.11;94878.78;5071902;28;20374;-68
2022/02/23 05:04:57;;;;;;;13.07;10.48;;;;;;;3.76;70.16;94882.94;5069071;28;20051;-68
2022/02/23 05:07:24;;;;;;;10.95;9.85;;;;;;;3.78;69.49;94890.53;5079050;28;20075;-68
2022/02/23 05:09:50;;;;;;;13.55;10.20;;;;;;;3.79;69.08;94885.34;5082441;28;20028;-68
2022/02/23 05:12:16;;;;;;;13.85;9.50;;;;;;;3.78;69.03;94899.06;5062796;28;20066;-68
2022/02/23 05:14:41;;;;;;;10.75;9.65;;;;;;;3.71;68.56;94907.22;5074699;28;20036;-68
2022/02/23 05:17:07;;;;;;;11.52;10.10;;;;;;;3.68;68.50;94908.22;5086343;28;20032;-68
2022/02/23 05:19:34;;;;;;;14.57;11.35;;;;;;;3.71;69.33;94917.50;5075885;28;20029;-68
2022/02/23 05:22:00;;;;;;;11.30;10.02;;;;;;;3.63;68.69;94924.78;5082597;28;20033;-68
2022/02/23 05:24:28;;;;;;;11.98;10.50;;;;;;;3.58;69.09;94925.84;5085768;28;20149;-69
2022/02/23 05:26:54;;;;;;;10.75;9.60;;;;;;;3.68;69.27;94927.94;5086663;28;20054;-68
2022/02/23 05:29:19;;;;;;;12.05;10.75;;;;;;;3.61;68.37;94911.19;5061427;28;20028;-69
2022/02/23 05:31:45;;;;;;;11.98;10.13;;;;;;;3.73;69.47;94933.66;5078471;28;20482;-69
2022/02/23 05:34:10;;;;;;;11.15;9.88;;;;;;;3.60;69.51;94943.78;5066180;28;20028;-69
2022/02/23 05:36:35;;;;;;;12.35;10.35;;;;;;;3.59;68.45;94936.97;5085139;28;20079;-68
2022/02/23 05:39:01;;;;;;;14.75;10.30;;;;;;;3.62;68.87;94959.09;5082275;28;20413;-68
2022/02/23 05:41:26;;;;;;;11.73;9.90;;;;;;;3.65;68.93;94953.78;5088590;28;20478;-70
2022/02/23 05:43:52;;;;;;;11.27;10.07;;;;;;;3.49;69.07;94959.75;5067187;28;20475;-69
2022/02/23 05:46:19;;;;;;;17.08;10.07;;;;;;;3.60;68.44;94963.50;5073523;28;20042;-69
2022/02/23 05:48:44;;;;;;;12.80;10.50;;;;;;;3.66;68.84;94968.31;5088522;28;20025;-69
2022/02/23 05:51:32;;;;;;;12.35;10.63;;;;;;;3.63;68.81;94973.59;5088639;28;20417;-69
2022/02/23 05:53:58;;;;;;;12.95;10.60;;;;;;;3.61;68.51;94968.53;5087360;28;20070;-69
2022/02/23 05:56:25;;;;;;;12.45;10.57;;;;;;;3.63;69.39;94965.91;5085696;28;20119;-70
2022/02/23 05:58:51;;;;;;;11.75;9.95;;;;;;;3.71;69.08;94974.84;5077698;28;20036;-70
2022/02/23 06:01:16;;;;;;;13.80;11.00;;;;;;;3.67;68.99;94980.22;5080738;28;20810;-69
2022/02/23 06:03:41;;;;;;;13.18;10.35;;;;;;;3.53;68.29;94975.81;5079030;28;20409;-69
2022/02/23 06:06:07;;;;;;;12.27;10.77;;;;;;;3.53;68.88;94984.34;5088794;28;20535;-70
2022/02/23 06:08:32;;;;;;;13.13;11.05;;;;;;;3.60;69.25;94992.59;5072100;28;20478;-69
2022/02/23 06:10:58;;;;;;;14.00;11.77;;;;;;;3.57;68.49;94983.28;5090119;28;20028;-69
2022/02/23 06:13:23;;;;;;;13.02;11.25;;;;;;;3.61;69.13;94988.28;5080455;28;20036;-69
2022/02/23 06:15:49;;;;;;;12.68;9.60;;;;;;;3.55;68.95;95000.53;5086757;28;20043;-69
2022/02/23 06:18:14;;;;;;;12.85;9.88;;;;;;;3.61;69.17;95001.94;5085621;28;20028;-70
2022/02/23 06:20:40;;;;;;;13.80;11.07;;;;;;;3.46;68.78;95005.31;5089528;28;20034;-69
2022/02/23 06:23:05;;;;;;;12.13;10.07;;;;;;;3.49;68.65;94998.28;5080905;28;20551;-69
2022/02/23 06:25:31;;;;;;;13.65;10.60;;;;;;;3.66;68.57;95007.66;5069212;28;20036;-69
2022/02/23 06:27:57;;;;;;;13.55;10.73;;;;;;;3.60;68.55;95020.03;5084139;28;20028;-69
2022/02/23 06:30:23;;;;;;;15.15;11.30;;;;;;;3.49;68.12;95026.53;5081716;28;20517;-70
2022/02/23 06:32:48;;;;;;;12.85;10.20;;;;;;;3.51;68.55;95024.72;5042509;28;20028;-70
2022/02/23 06:35:13;;;;;;;14.85;10.80;;;;;;;3.41;68.65;95023.53;5088059;28;20059;-70
2022/02/23 06:37:39;;;;;;;12.18;9.88;;;;;;;3.58;68.29;95036.31;5082780;28;20048;-70
2022/02/23 06:40:05;;;;;;;12.43;10.32;;;;;;;3.60;68.59;95043.13;5086961;28;20032;-69
2022/02/23 06:42:31;;;;;;;13.18;10.93;;;;;;;3.56;68.72;95038.13;5087276;28;20114;-70
2022/02/23 06:44:56;;;;;;;14.00;10.88;;;;;;;3.55;68.63;95049.31;5048608;28;20170;-69
2022/02/23 06:47:22;;;;;;;14.15;10.50;;;;;;;3.65;69.27;95057.41;5067697;28;20016;-69
2022/02/23 06:49:47;;;;;;;13.82;10.20;;;;;;;3.56;68.79;95057.84;5078493;28;20045;-72
2022/02/23 06:52:14;;;;;;;12.25;10.18;;;;;;;3.39;68.86;95061.28;5084876;28;20028;-69
2022/02/23 06:54:40;;;;;;;14.98;11.25;;;;;;;3.45;69.62;95058.41;5066722;28;20036;-69
2022/02/23 06:57:08;;;;;;;12.52;10.18;;;;;;;3.44;69.35;95064.47;5080300;28;20085;-72
2022/02/23 06:59:34;;;;;;;13.45;10.65;;;;;;;3.46;69.62;95061.84;5067175;28;20035;-69
2022/02/23 07:02:00;;;;;;;13.13;10.25;;;;;;;3.39;69.89;95060.47;5064907;28;20020;-70
2022/02/23 07:04:25;;;;;;;12.93;10.23;;;;;;;3.46;69.69;95060.09;5065080;28;20024;-69
2022/02/23 07:06:51;;;;;;;12.27;9.57;;;;;;;3.48;69.89;95065.13;5082789;28;20493;-69
2022/02/23 07:09:16;;;;;;;10.73;9.00;;;;;;;3.49;70.12;95070.19;5083530;28;20418;-69
2022/02/23 07:11:42;;;;;;;11.40;9.50;;;;;;;3.50;69.41;95064.16;5082282;28;20480;-69
2022/02/23 07:14:08;;;;;;;12.68;9.55;;;;;;;3.50;70.01;95064.16;5078742;28;20020;-69
2022/02/23 07:16:33;;;;;;;12.10;9.23;;;;;;;3.43;69.46;95056.84;5081598;28;20483;-68
2022/02/23 07:18:59;;;;;;;11.75;9.18;;;;;;;3.52;69.68;95057.19;5078516;28;20024;-69
2022/02/23 07:21:24;;;;;;;13.05;9.20;;;;;;;3.53;69.10;95063.97;5072396;28;20034;-68
2022/02/23 07:23:51;;;;;;;11.32;9.45;;;;;;;3.52;69.91;95057.19;5076074;28;20553;-69
2022/02/23 07:26:17;;;;;;;12.23;9.95;;;;;;;3.57;69.35;95057.78;5078038;28;20028;-69
2022/02/23 07:28:44;;;;;;;12.32;9.93;;;;;;;3.58;69.77;95056.06;5085375;28;20035;-69
2022/02/23 07:31:14;;;;;;;11.95;9.23;;;;;;;3.65;69.31;95057.41;5049791;28;20130;-69
2022/02/23 07:33:40;;;;;;;12.40;8.85;;;;;;;3.74;69.02;95056.09;5068832;28;20377;-69
2022/02/23 07:36:06;;;;;;;10.80;8.73;;;;;;;3.49;68.64;95047.09;5067802;28;20032;-70
2022/02/23 07:38:32;;;;;;;11.50;8.95;;;;;;;3.65;69.26;95056.56;5089440;28;20434;-69
2022/02/23 07:40:57;;;;;;;11.27;9.35;;;;;;;3.75;68.85;95063.72;5070463;28;20259;-70
2022/02/23 07:43:23;;;;;;;13.35;10.27;;;;;;;3.78;68.55;95060.97;5078721;28;20028;-70
2022/02/23 07:45:51;;;;;;;13.50;10.38;;;;;;;3.71;68.57;95063.97;5078791;28;20035;-70
2022/02/23 07:48:16;;;;;;;12.90;10.63;;;;;;;3.72;68.77;95065.63;5082772;28;20055;-70
2022/02/23 07:50:41;;;;;;;12.52;10.45;;;;;;;3.89;68.74;95062.16;5073112;28;20031;-69
2022/02/23 07:53:07;;;;;;;14.50;9.82;;;;;;;4.00;67.77;95060.69;5086255;28;20500;-71
2022/02/23 07:55:32;;;;;;;13.38;10.40;;;;;;;4.01;68.67;95064.94;5057658;28;20273;-70
2022/02/23 07:57:58;;;;;;;13.88;10.68;;;;;;;4.10;68.28;95065.34;5075765;28;20040;-71
2022/02/23 08:00:23;;;;;;;14.18;10.30;;;;;;;4.19;68.34;95072.56;5082009;28;20024;-70
2022/02/23 08:02:49;;;;;;;13.70;10.45;;;;;;;4.18;67.79;95070.88;5087435;28;20020;-70
2022/02/23 08:05:14;;;;;;;11.40;9.70;;;;;;;4.29;68.14;95073.75;5075015;28;20039;-69
2022/02/23 08:07:40;;;;;;;11.10;9.00;;;;;;;4.40;68.92;95074.00;5076595;28;20024;-70
2022/02/23 08:10:05;;;;;;;14.02;11.05;;;;;;;4.37;66.96;95076.69;5085858;28;20027;-69
2022/02/23 08:12:31;;;;;;;13.68;11.30;;;;;;;4.43;67.75;95080.69;5079221;28;20070;-69
2022/02/23 08:14:57;;;;;;;11.80;9.98;;;;;;;4.40;67.38;95071.41;5090276;28;20402;-70
2022/02/23 08:20:08;;;;;;;15.48;12.43;;;;;;;4.62;67.66;95077.94;5085346;28;20168;-70
2022/02/23 08:22:33;;;;;;;13.18;10.60;;;;;;;4.67;67.75;95076.75;5082253;28;20035;-67
2022/02/23 08:24:59;;;;;;;12.20;10.30;;;;;;;4.64;66.75;95073.53;5083015;28;20033;-68
2022/02/23 08:27:25;;;;;;;12.15;10.35;;;;;;;4.73;67.51;95083.31;5085414;28;20038;-67
2022/02/23 08:29:52;;;;;;;12.32;11.02;;;;;;;4.88;67.69;95085.06;5082573;28;20101;-68
2022/02/23 08:32:18;;;;;;;11.90;10.25;;;;;;;4.81;66.56;95055.41;5070217;28;20061;-67
2022/02/23 08:34:46;;;;;;;12.35;10.15;;;;;;;4.99;66.89;95088.78;5093695;28;20032;-67
2022/02/23 08:37:12;;;;;;;12.60;10.20;;;;;;;5.06;65.78;95088.31;5091666;28;20115;-68
2022/02/23 08:39:38;;;;;;;11.90;9.55;;;;;;;5.14;66.35;95072.44;5086475;28;20144;-67
2022/02/23 08:42:04;;;;;;;14.27;10.20;;;;;;;5.27;65.41;95080.31;5075655;28;20028;-67
2022/02/23 08:44:30;;;;;;;12.45;10.02;;;;;;;5.41;65.42;95076.94;5079501;28;20077;-68
2022/02/23 08:46:55;;;;;;;12.25;10.25;;;;;;;5.55;63.68;95072.63;5091640;28;20040;-67
2022/02/23 08:49:21;;;;;;;12.40;9.98;;;;;;;5.56;63.66;95083.75;5092905;28;20042;-68
2022/02/23 08:51:47;;;;;;;11.68;9.63;;;;;;;5.63;64.52;95074.75;5092632;28;20047;-67
2022/02/23 08:54:13;;;;;;;17.27;11.60;;;;;;;5.71;64.06;95077.69;5092823;28;20122;-68
2022/02/23 08:56:38;;;;;;;16.67;13.80;;;;;;;5.69;63.25;95076.13;5093713;28;20036;-67
2022/02/23 08:59:04;;;;;;;13.40;11.40;;;;;;;5.68;63.02;95072.69;5092639;28;20520;-67
2022/02/23 09:01:30;;;;;;;14.02;10.68;;;;;;;5.74;62.78;95076.66;5092333;28;20414;-68
2022/02/23 09:03:55;;;;;;;11.50;10.25;;;;;;;5.59;62.43;95063.75;5059100;28;20043;-69
2022/02/23 09:06:22;;;;;;;12.27;9.80;;;;;;;5.74;63.32;95074.09;5075468;28;20028;-68
2022/02/23 09:08:48;;;;;;;14.60;10.10;;;;;;;5.81;62.33;95073.63;5092432;28;20036;-69
2022/02/23 09:11:13;;;;;;;10.48;9.02;;;;;;;5.84;63.43;95062.31;5093481;28;20036;-69
2022/02/23 09:13:39;;;;;;;11.60;8.70;;;;;;;5.94;62.38;95072.94;5093745;28;20040;-69
2022/02/23 09:16:05;;;;;;;12.90;10.13;;;;;;;5.99;61.74;95065.72;5090954;28;20115;-69
2022/02/23 09:18:31;;;;;;;13.52;9.07;;;;;;;6.15;61.10;95071.63;5093666;28;20332;-69
2022/02/23 09:20:56;;;;;;;10.90;8.40;;;;;;;6.20;60.25;95079.91;5093277;28;20037;-69
2022/02/23 09:23:22;;;;;;;9.90;7.68;;;;;;;6.26;61.13;95082.09;5092067;28;20028;-69
2022/02/23 09:25:47;;;;;;;8.18;7.18;;;;;;;6.27;60.47;95077.78;5075089;28;20078;-69
2022/02/23 09:28:13;;;;;;;8.48;7.10;;;;;;;6.40;60.00;95078.66;5092047;28;20032;-69
2022/02/23 09:30:38;;;;;;;7.45;5.55;;;;;;;6.47;58.70;95084.31;5092115;28;20037;-69
2022/02/23 09:33:04;;;;;;;7.57;6.07;;;;;;;6.46;57.51;95080.03;5093278;28;20047;-69
2022/02/23 09:35:29;;;;;;;9.88;7.32;;;;;;;6.56;57.76;95080.31;5091831;28;20040;-69
2022/02/23 09:37:57;;;;;;;8.18;7.22;;;;;;;6.60;58.53;95074.00;5091637;28;20101;-69
2022/02/23 09:40:22;;;;;;;7.22;5.85;;;;;;;6.70;57.73;95069.94;5091712;28;20112;-69
2022/02/23 09:42:48;;;;;;;8.88;6.95;;;;;;;6.72;57.16;95076.66;5091683;28;20028;-69
2022/02/23 09:45:13;;;;;;;9.20;6.88;;;;;;;6.77;56.87;95081.53;5091804;28;20082;-69
2022/02/23 09:47:39;;;;;;;8.50;7.50;;;;;;;6.85;56.36;95070.69;5091445;28;20393;-69
2022/02/23 09:50:10;;;;;;;9.10;7.75;;;;;;;6.92;56.58;95071.97;5074764;28;20032;-69
2022/02/23 09:52:36;;;;;;;8.48;6.50;;;;;;;7.03;55.88;95069.53;5091481;28;20107;-69
2022/02/23 09:55:03;;;;;;;6.32;5.72;;;;;;;7.01;55.45;95076.53;5091409;28;20133;-69
2022/02/23 09:57:29;;;;;;;8.10;6.57;;;;;;;7.05;56.08;95082.34;5091608;28;20102;-69
2022/02/23 09:59:55;;;;;;;10.43;6.70;;;;;;;7.10;55.77;95083.72;5074330;28;20494;-69
2022/02/23 10:02:21;;;;;;;8.60;7.10;;;;;;;7.22;56.18;95091.59;5092811;28;20032;-69
2022/02/23 10:04:49;;;;;;;10.07;8.73;;;;;;;7.13;56.04;95087.84;5074328;28;20061;-69
2022/02/23 10:07:15;;;;;;;15.00;11.05;;;;;;;7.15;56.64;95084.22;5074759;28;20486;-69
2022/02/23 10:09:47;;;;;;;28.27;17.50;;;;;;;7.27;56.49;95087.78;5092609;28;20078;-70
2022/02/23 10:12:19;;;;;;;24.88;14.90;;;;;;;7.29;56.19;95082.50;5091073;28;20180;-69
2022/02/23 10:14:45;;;;;;;15.73;9.40;;;;;;;7.16;55.74;95077.31;5092173;28;20029;-69
2022/02/23 10:17:11;;;;;;;38.95;20.80;;;;;;;7.22;56.91;95073.50;5090918;28;20020;-69
2022/02/23 10:19:36;;;;;;;11.48;8.57;;;;;;;7.19;56.23;95073.69;5073943;28;20101;-69
2022/02/23 10:22:03;;;;;;;10.32;7.70;;;;;;;7.08;57.33;95059.72;5073965;28;20024;-68
2022/02/23 10:24:37;;;;;;;10.10;7.55;;;;;;;7.11;57.19;95072.44;5074277;28;20058;-68
2022/02/23 10:27:07;;;;;;;12.15;9.65;;;;;;;7.07;57.86;95070.97;5091641;28;20040;-68
2022/02/23 10:29:45;;;;;;;14.07;10.03;;;;;;;6.97;56.88;95075.09;5091056;28;20081;-69
2022/02/23 10:32:11;;;;;;;17.40;13.13;;;;;;;6.98;58.01;95071.56;5091841;28;20604;-69
2022/02/23 10:34:47;;;;;;;18.73;12.57;;;;;;;7.04;57.21;95072.94;5073797;28;20024;-69
2022/02/23 10:37:15;;;;;;;27.05;21.13;;;;;;;7.10;57.04;95075.13;5073778;28;20052;-69
2022/02/23 10:39:48;;;;;;;24.15;17.48;;;;;;;7.23;56.76;95073.41;5073865;28;20042;-69
2022/02/23 10:42:19;;;;;;;15.27;11.50;;;;;;;7.09;56.03;95073.47;5073511;28;20024;-69
2022/02/23 10:44:50;;;;;;;14.90;11.90;;;;;;;7.14;56.61;95069.66;5073849;28;20028;-69
2022/02/23 10:47:25;;;;;;;12.52;9.40;;;;;;;7.23;56.14;95070.00;5057377;28;20039;-69
2022/02/23 10:50:07;;;;;;;10.25;7.80;;;;;;;7.23;56.34;95075.16;5090354;28;20051;-69
2022/02/23 10:52:36;;;;;;;10.13;7.68;;;;;;;7.25;56.26;95075.91;5073340;28;20034;-69
2022/02/23 10:55:13;;;;;;;9.32;7.35;;;;;;;7.31;56.25;95073.72;5091868;28;20032;-69
2022/02/23 10:57:50;;;;;;;16.15;9.27;;;;;;;7.27;55.73;95069.69;5090261;28;20535;-69
2022/02/23 11:00:33;;;;;;;12.50;9.77;;;;;;;7.40;56.18;95077.47;5090285;28;20040;-69
2022/02/23 11:02:58;;;;;;;20.80;15.38;;;;;;;7.42;55.27;95065.25;5090428;28;20024;-69
2022/02/23 11:05:25;;;;;;;14.73;11.98;;;;;;;7.49;55.54;95063.91;5056473;28;20101;-69
2022/02/23 11:07:51;;;;;;;10.70;8.02;;;;;;;7.47;55.96;95065.78;5090078;28;20028;-69
2022/02/23 11:10:18;;;;;;;11.80;7.88;;;;;;;7.48;55.62;95064.84;5073163;28;20032;-69
2022/02/23 11:12:48;;;;;;;10.73;7.20;;;;;;;7.51;54.16;95061.25;5091298;28;20493;-69
2022/02/23 11:15:19;;;;;;;11.73;8.32;;;;;;;7.49;55.28;95061.31;5073549;28;20383;-69
2022/02/23 11:17:45;;;;;;;12.20;9.45;;;;;;;7.52;55.23;95066.31;5073443;28;20451;-69
2022/02/23 11:20:13;;;;;;;13.40;10.30;;;;;;;7.37;54.26;95055.22;5073063;28;20043;-69
2022/02/23 11:22:39;;;;;;;14.13;10.23;;;;;;;7.12;54.23;95065.53;5089842;28;20020;-69
2022/02/23 11:25:05;;;;;;;15.20;11.73;;;;;;;7.09;55.05;95063.97;5089736;28;20505;-69
2022/02/23 11:27:31;;;;;;;11.48;9.77;;;;;;;7.17;54.65;95058.31;5089814;28;20028;-69